ASA22 CYEG-CYYJ
Flight info
| Callsign | ASA22 |
|---|---|
| Flight time | 1h 22m |
| Altitude | 36000 |
| Route | ANDIE Q860 MERYT DCT BOOTH APASS8 |
| Aircraft | B738/M-SDE2E3FGHIRWXY/LB1 |
Departure
| Time | 2026-04-26 22:01 |
|---|---|
| Airport | Edmonton International Airport (CYEG) |
Arrival
| Time | 2026-04-26 23:24 |
|---|---|
| Airport | Victoria International Airport (CYYJ) |
| Time | Latitude | Longitude | Altitude | Speed | Heading |
|---|---|---|---|---|---|
| 2026-04-26 21:42 | 53.29559 | -113.56834 | 2349 ft | 0 kts | 47° |
| 2026-04-26 21:54 | 53.29553 | -113.56850 | 2350 ft | 2 kts | 86° |
| 2026-04-26 21:54 | 53.29555 | -113.56877 | 2350 ft | 2 kts | 119° |
| 2026-04-26 21:55 | 53.29556 | -113.56880 | 2350 ft | 0 kts | 123° |
| 2026-04-26 21:57 | 53.29547 | -113.56870 | 2350 ft | 6 kts | 153° |
| 2026-04-26 21:58 | 53.29532 | -113.56866 | 2350 ft | 0 kts | 179° |
| 2026-04-26 21:58 | 53.29522 | -113.56875 | 2350 ft | 6 kts | 210° |
| 2026-04-26 21:58 | 53.29462 | -113.56981 | 2350 ft | 17 kts | 225° |
| 2026-04-26 21:58 | 53.29382 | -113.57003 | 2350 ft | 9 kts | 118° |
| 2026-04-26 21:59 | 53.29358 | -113.56960 | 2349 ft | 5 kts | 143° |
| 2026-04-26 21:59 | 53.29301 | -113.56877 | 2349 ft | 15 kts | 137° |
| 2026-04-26 21:59 | 53.29214 | -113.56732 | 2348 ft | 20 kts | 134° |
| 2026-04-26 21:59 | 53.29107 | -113.56552 | 2347 ft | 23 kts | 133° |
| 2026-04-26 22:00 | 53.28995 | -113.56366 | 2347 ft | 22 kts | 135° |
| 2026-04-26 22:00 | 53.28869 | -113.56234 | 2346 ft | 22 kts | 171° |
| 2026-04-26 22:00 | 53.28734 | -113.56260 | 2347 ft | 20 kts | 224° |
| 2026-04-26 22:00 | 53.28767 | -113.56458 | 2347 ft | 26 kts | 313° |
| 2026-04-26 22:01 | 53.29068 | -113.56964 | 2348 ft | 96 kts | 315° |
| 2026-04-26 22:01 | 53.29682 | -113.57991 | 2354 ft | 152 kts | 314° |
| 2026-04-26 22:01 | 53.30515 | -113.59370 | 2690 ft | 177 kts | 315° |
| 2026-04-26 22:01 | 53.31420 | -113.60809 | 3460 ft | 184 kts | 312° |
| 2026-04-26 22:02 | 53.32316 | -113.62384 | 4190 ft | 192 kts | 307° |
| 2026-04-26 22:02 | 53.32767 | -113.64570 | 4399 ft | 214 kts | 265° |
| 2026-04-26 22:02 | 53.32153 | -113.66930 | 4665 ft | 234 kts | 234° |
| 2026-04-26 22:02 | 53.31070 | -113.69181 | 4931 ft | 258 kts | 232° |
| 2026-04-26 22:03 | 53.29915 | -113.71548 | 5655 ft | 264 kts | 232° |
| 2026-04-26 22:03 | 53.28755 | -113.73948 | 6512 ft | 266 kts | 232° |
| 2026-04-26 22:03 | 53.27595 | -113.76383 | 7313 ft | 270 kts | 233° |
| 2026-04-26 22:03 | 53.26437 | -113.78843 | 8087 ft | 274 kts | 233° |
| 2026-04-26 22:04 | 53.25258 | -113.81368 | 8878 ft | 277 kts | 233° |
| 2026-04-26 22:04 | 53.24072 | -113.83923 | 9655 ft | 280 kts | 233° |
| 2026-04-26 22:04 | 53.22869 | -113.86527 | 10286 ft | 290 kts | 233° |
| 2026-04-26 22:04 | 53.21586 | -113.89311 | 10504 ft | 314 kts | 233° |
| 2026-04-26 22:05 | 53.20227 | -113.92264 | 11045 ft | 325 kts | 233° |
| 2026-04-26 22:05 | 53.18835 | -113.95286 | 11788 ft | 329 kts | 233° |
| 2026-04-26 22:05 | 53.17430 | -113.98333 | 12581 ft | 332 kts | 233° |
| 2026-04-26 22:05 | 53.16031 | -114.01368 | 13327 ft | 336 kts | 233° |
| 2026-04-26 22:06 | 53.14602 | -114.04465 | 14063 ft | 339 kts | 233° |
| 2026-04-26 22:06 | 53.13151 | -114.07606 | 14817 ft | 343 kts | 233° |
| 2026-04-26 22:06 | 53.11686 | -114.10775 | 15568 ft | 347 kts | 233° |
| 2026-04-26 22:06 | 53.10201 | -114.13983 | 16303 ft | 351 kts | 233° |
| 2026-04-26 22:07 | 53.08698 | -114.17226 | 17019 ft | 356 kts | 233° |
| 2026-04-26 22:07 | 53.07179 | -114.20498 | 17712 ft | 359 kts | 233° |
| 2026-04-26 22:07 | 53.05642 | -114.23808 | 18388 ft | 363 kts | 233° |
| 2026-04-26 22:07 | 53.04087 | -114.27150 | 19039 ft | 367 kts | 233° |
| 2026-04-26 22:08 | 53.02538 | -114.30478 | 19658 ft | 371 kts | 233° |
| 2026-04-26 22:08 | 53.00948 | -114.33888 | 20289 ft | 374 kts | 233° |
| 2026-04-26 22:08 | 52.99342 | -114.37324 | 20892 ft | 378 kts | 233° |
| 2026-04-26 22:08 | 52.97759 | -114.40837 | 21463 ft | 382 kts | 235° |
| 2026-04-26 22:09 | 52.96239 | -114.44479 | 22027 ft | 385 kts | 237° |
| 2026-04-26 22:09 | 52.94738 | -114.48190 | 22586 ft | 388 kts | 237° |
| 2026-04-26 22:09 | 52.93252 | -114.51887 | 23113 ft | 391 kts | 237° |
| 2026-04-26 22:09 | 52.91733 | -114.55658 | 23623 ft | 395 kts | 237° |
| 2026-04-26 22:10 | 52.90196 | -114.59453 | 24128 ft | 398 kts | 237° |
| 2026-04-26 22:10 | 52.88637 | -114.63280 | 24614 ft | 402 kts | 237° |
| 2026-04-26 22:10 | 52.87063 | -114.67127 | 25087 ft | 405 kts | 237° |
| 2026-04-26 22:10 | 52.85476 | -114.70992 | 25560 ft | 408 kts | 236° |
| 2026-04-26 22:11 | 52.83866 | -114.74902 | 26011 ft | 410 kts | 236° |
| 2026-04-26 22:11 | 52.82251 | -114.78815 | 26445 ft | 413 kts | 236° |
| 2026-04-26 22:11 | 52.80642 | -114.82707 | 26865 ft | 416 kts | 236° |
| 2026-04-26 22:11 | 52.79002 | -114.86669 | 27274 ft | 419 kts | 236° |
| 2026-04-26 22:12 | 52.77346 | -114.90660 | 27683 ft | 421 kts | 236° |
| 2026-04-26 22:12 | 52.75691 | -114.94645 | 28069 ft | 424 kts | 236° |
| 2026-04-26 22:12 | 52.74008 | -114.98691 | 28431 ft | 427 kts | 236° |
| 2026-04-26 22:12 | 52.72317 | -115.02748 | 28775 ft | 430 kts | 236° |
| 2026-04-26 22:13 | 52.70633 | -115.06785 | 29152 ft | 432 kts | 236° |
| 2026-04-26 22:13 | 52.68916 | -115.10892 | 29519 ft | 434 kts | 236° |
| 2026-04-26 22:13 | 52.67197 | -115.14998 | 29839 ft | 437 kts | 236° |
| 2026-04-26 22:13 | 52.65463 | -115.19133 | 30152 ft | 439 kts | 236° |
| 2026-04-26 22:14 | 52.63720 | -115.23281 | 30476 ft | 441 kts | 236° |
| 2026-04-26 22:14 | 52.61965 | -115.27453 | 30856 ft | 441 kts | 236° |
| 2026-04-26 22:14 | 52.60220 | -115.31594 | 31293 ft | 440 kts | 236° |
| 2026-04-26 22:14 | 52.58477 | -115.35722 | 31741 ft | 438 kts | 236° |
| 2026-04-26 22:15 | 52.56741 | -115.39829 | 32131 ft | 437 kts | 236° |
| 2026-04-26 22:15 | 52.55025 | -115.43881 | 32467 ft | 438 kts | 236° |
| 2026-04-26 22:15 | 52.53279 | -115.47999 | 32824 ft | 437 kts | 236° |
| 2026-04-26 22:15 | 52.51539 | -115.52095 | 33195 ft | 437 kts | 236° |
| 2026-04-26 22:16 | 52.49800 | -115.56182 | 33553 ft | 436 kts | 236° |
| 2026-04-26 22:16 | 52.48064 | -115.60256 | 33884 ft | 436 kts | 236° |
| 2026-04-26 22:16 | 52.46324 | -115.64332 | 34210 ft | 435 kts | 236° |
| 2026-04-26 22:16 | 52.44585 | -115.68398 | 34564 ft | 434 kts | 236° |
| 2026-04-26 22:17 | 52.42875 | -115.72392 | 34910 ft | 433 kts | 236° |
| 2026-04-26 22:17 | 52.41144 | -115.76429 | 35181 ft | 434 kts | 236° |
| 2026-04-26 22:17 | 52.39404 | -115.80479 | 35426 ft | 435 kts | 236° |
| 2026-04-26 22:17 | 52.37662 | -115.84528 | 35670 ft | 436 kts | 236° |
| 2026-04-26 22:18 | 52.35916 | -115.88581 | 35963 ft | 435 kts | 236° |
| 2026-04-26 22:18 | 52.34158 | -115.92655 | 35976 ft | 440 kts | 235° |
| 2026-04-26 22:18 | 52.30619 | -116.00835 | 35996 ft | 440 kts | 235° |
| 2026-04-26 22:19 | 52.27130 | -116.08872 | 35994 ft | 433 kts | 235° |
| 2026-04-26 22:19 | 52.23642 | -116.16885 | 36003 ft | 433 kts | 235° |
| 2026-04-26 22:20 | 52.20715 | -116.23589 | 36002 ft | 433 kts | 235° |
| 2026-04-26 22:20 | 52.16637 | -116.32901 | 36009 ft | 434 kts | 235° |
| 2026-04-26 22:21 | 52.13114 | -116.40916 | 36014 ft | 436 kts | 235° |
| 2026-04-26 22:21 | 52.09569 | -116.48957 | 35985 ft | 437 kts | 235° |
| 2026-04-26 22:22 | 52.06014 | -116.56998 | 36002 ft | 438 kts | 235° |
| 2026-04-26 22:22 | 52.02468 | -116.64992 | 36013 ft | 438 kts | 235° |
| 2026-04-26 22:23 | 51.98895 | -116.73021 | 36008 ft | 438 kts | 235° |
| 2026-04-26 22:23 | 51.95321 | -116.81028 | 35996 ft | 438 kts | 234° |
| 2026-04-26 22:24 | 51.91739 | -116.89027 | 36006 ft | 436 kts | 234° |
| 2026-04-26 22:24 | 51.88191 | -116.96928 | 35989 ft | 436 kts | 234° |
| 2026-04-26 22:25 | 51.84618 | -117.04858 | 35994 ft | 436 kts | 234° |
| 2026-04-26 22:25 | 51.81030 | -117.12799 | 36008 ft | 435 kts | 234° |
| 2026-04-26 22:26 | 51.77448 | -117.20703 | 35991 ft | 435 kts | 234° |
| 2026-04-26 22:26 | 51.73889 | -117.28535 | 35994 ft | 435 kts | 234° |
| 2026-04-26 22:27 | 51.70305 | -117.36395 | 35993 ft | 434 kts | 234° |
| 2026-04-26 22:27 | 51.66715 | -117.44238 | 36012 ft | 435 kts | 234° |
| 2026-04-26 22:28 | 51.63116 | -117.52083 | 36007 ft | 434 kts | 234° |
| 2026-04-26 22:28 | 51.59545 | -117.59846 | 35996 ft | 434 kts | 234° |
| 2026-04-26 22:29 | 51.55944 | -117.67653 | 35999 ft | 434 kts | 234° |
| 2026-04-26 22:29 | 51.52333 | -117.75456 | 36008 ft | 435 kts | 234° |
| 2026-04-26 22:30 | 51.48714 | -117.83256 | 35998 ft | 436 kts | 234° |
| 2026-04-26 22:30 | 51.45073 | -117.91077 | 36005 ft | 437 kts | 234° |
| 2026-04-26 22:31 | 51.41421 | -117.98898 | 36002 ft | 439 kts | 234° |
| 2026-04-26 22:31 | 51.37773 | -118.06690 | 36016 ft | 439 kts | 234° |
| 2026-04-26 22:32 | 51.34116 | -118.14474 | 36001 ft | 437 kts | 234° |
| 2026-04-26 22:32 | 51.30472 | -118.22208 | 36000 ft | 434 kts | 234° |
| 2026-04-26 22:33 | 51.25042 | -118.33692 | 35998 ft | 430 kts | 233° |
| 2026-04-26 22:34 | 51.21436 | -118.41288 | 35996 ft | 430 kts | 233° |
| 2026-04-26 22:34 | 51.17810 | -118.48906 | 36002 ft | 433 kts | 233° |
| 2026-04-26 22:35 | 51.14125 | -118.56625 | 36011 ft | 439 kts | 233° |
| 2026-04-26 22:35 | 51.10471 | -118.64256 | 35997 ft | 431 kts | 233° |
| 2026-04-26 22:36 | 51.06859 | -118.71774 | 35986 ft | 423 kts | 233° |
| 2026-04-26 22:36 | 51.03282 | -118.79202 | 36015 ft | 430 kts | 233° |
| 2026-04-26 22:37 | 50.99598 | -118.86831 | 36017 ft | 439 kts | 233° |
| 2026-04-26 22:37 | 50.95855 | -118.94558 | 36007 ft | 439 kts | 233° |
| 2026-04-26 22:38 | 50.92193 | -119.02091 | 35986 ft | 422 kts | 233° |
| 2026-04-26 22:38 | 50.88618 | -119.09429 | 35995 ft | 420 kts | 233° |
| 2026-04-26 22:39 | 50.85625 | -119.15558 | 36004 ft | 428 kts | 233° |
| 2026-04-26 22:39 | 50.81929 | -119.23105 | 36015 ft | 435 kts | 233° |
| 2026-04-26 22:40 | 50.78224 | -119.30645 | 35998 ft | 429 kts | 233° |
| 2026-04-26 22:40 | 50.74620 | -119.37959 | 35988 ft | 423 kts | 233° |
| 2026-04-26 22:41 | 50.70957 | -119.45375 | 36011 ft | 433 kts | 233° |
| 2026-04-26 22:41 | 50.67216 | -119.52928 | 36008 ft | 438 kts | 233° |
| 2026-04-26 22:42 | 50.63469 | -119.60465 | 35994 ft | 432 kts | 232° |
| 2026-04-26 22:42 | 50.59777 | -119.67874 | 35998 ft | 428 kts | 232° |
| 2026-04-26 22:43 | 50.56107 | -119.75219 | 35999 ft | 425 kts | 232° |
| 2026-04-26 22:43 | 50.52675 | -119.82721 | 36005 ft | 423 kts | 237° |
| 2026-04-26 22:44 | 50.49480 | -119.90500 | 35993 ft | 423 kts | 238° |
| 2026-04-26 22:44 | 50.46264 | -119.98321 | 36009 ft | 431 kts | 237° |
| 2026-04-26 22:45 | 50.42967 | -120.06208 | 36008 ft | 437 kts | 237° |
| 2026-04-26 22:45 | 50.39604 | -120.14167 | 36006 ft | 438 kts | 237° |
| 2026-04-26 22:46 | 50.36230 | -120.22111 | 35996 ft | 437 kts | 237° |
| 2026-04-26 22:46 | 50.32856 | -120.30029 | 35994 ft | 436 kts | 237° |
| 2026-04-26 22:47 | 50.29496 | -120.37895 | 36002 ft | 433 kts | 237° |
| 2026-04-26 22:47 | 50.26177 | -120.45643 | 35990 ft | 430 kts | 237° |
| 2026-04-26 22:48 | 50.22856 | -120.53373 | 35993 ft | 426 kts | 237° |
| 2026-04-26 22:48 | 50.19553 | -120.61038 | 35996 ft | 425 kts | 237° |
| 2026-04-26 22:49 | 50.16251 | -120.68679 | 36009 ft | 424 kts | 237° |
| 2026-04-26 22:49 | 50.12948 | -120.76301 | 35997 ft | 423 kts | 237° |
| 2026-04-26 22:50 | 50.09657 | -120.83872 | 35996 ft | 424 kts | 237° |
| 2026-04-26 22:50 | 50.06343 | -120.91476 | 35998 ft | 425 kts | 236° |
| 2026-04-26 22:51 | 50.03014 | -120.99092 | 36008 ft | 426 kts | 236° |
| 2026-04-26 22:51 | 49.99663 | -121.06736 | 36002 ft | 428 kts | 236° |
| 2026-04-26 22:52 | 49.96305 | -121.14372 | 35989 ft | 423 kts | 236° |
| 2026-04-26 22:52 | 49.94665 | -121.18092 | 35973 ft | 410 kts | 236° |
| 2026-04-26 22:52 | 49.93100 | -121.21637 | 35983 ft | 396 kts | 236° |
| 2026-04-26 22:52 | 49.91546 | -121.25152 | 35976 ft | 383 kts | 236° |
| 2026-04-26 22:53 | 49.90064 | -121.28501 | 35978 ft | 370 kts | 236° |
| 2026-04-26 22:53 | 49.87204 | -121.34955 | 35801 ft | 365 kts | 236° |
| 2026-04-26 22:53 | 49.85773 | -121.38179 | 35413 ft | 361 kts | 236° |
| 2026-04-26 22:54 | 49.84342 | -121.41399 | 34599 ft | 367 kts | 236° |
| 2026-04-26 22:54 | 49.82857 | -121.44740 | 33232 ft | 387 kts | 236° |
| 2026-04-26 22:54 | 49.81297 | -121.48243 | 32187 ft | 398 kts | 236° |
| 2026-04-26 22:54 | 49.79727 | -121.51761 | 31760 ft | 395 kts | 236° |
| 2026-04-26 22:55 | 49.78163 | -121.55260 | 31293 ft | 394 kts | 236° |
| 2026-04-26 22:55 | 49.76609 | -121.58732 | 30946 ft | 391 kts | 236° |
| 2026-04-26 22:55 | 49.75080 | -121.62144 | 30565 ft | 389 kts | 236° |
| 2026-04-26 22:55 | 49.73538 | -121.65579 | 30203 ft | 386 kts | 236° |
| 2026-04-26 22:56 | 49.72010 | -121.68978 | 29825 ft | 384 kts | 236° |
| 2026-04-26 22:56 | 49.70491 | -121.72354 | 29482 ft | 381 kts | 236° |
| 2026-04-26 22:56 | 49.68988 | -121.75694 | 29095 ft | 377 kts | 236° |
| 2026-04-26 22:56 | 49.67497 | -121.79001 | 28752 ft | 373 kts | 236° |
| 2026-04-26 22:57 | 49.66017 | -121.82279 | 28383 ft | 370 kts | 236° |
| 2026-04-26 22:57 | 49.64548 | -121.85530 | 28027 ft | 367 kts | 236° |
| 2026-04-26 22:57 | 49.63089 | -121.88754 | 27697 ft | 363 kts | 236° |
| 2026-04-26 22:57 | 49.61662 | -121.91903 | 27350 ft | 361 kts | 236° |
| 2026-04-26 22:58 | 49.60230 | -121.95058 | 27020 ft | 357 kts | 236° |
| 2026-04-26 22:58 | 49.58811 | -121.98183 | 26680 ft | 354 kts | 236° |
| 2026-04-26 22:58 | 49.57405 | -122.01275 | 26380 ft | 350 kts | 236° |
| 2026-04-26 22:58 | 49.56012 | -122.04336 | 26063 ft | 347 kts | 236° |
| 2026-04-26 22:59 | 49.54633 | -122.07359 | 25740 ft | 343 kts | 236° |
| 2026-04-26 22:59 | 49.53268 | -122.10350 | 25429 ft | 340 kts | 236° |
| 2026-04-26 22:59 | 49.51913 | -122.13319 | 25139 ft | 337 kts | 236° |
| 2026-04-26 22:59 | 49.50567 | -122.16264 | 24805 ft | 335 kts | 236° |
| 2026-04-26 23:00 | 49.49246 | -122.19149 | 24501 ft | 332 kts | 236° |
| 2026-04-26 23:00 | 49.47917 | -122.22050 | 24184 ft | 330 kts | 236° |
| 2026-04-26 23:00 | 49.46597 | -122.24928 | 23876 ft | 327 kts | 236° |
| 2026-04-26 23:00 | 49.45291 | -122.27771 | 23585 ft | 324 kts | 236° |
| 2026-04-26 23:01 | 49.43994 | -122.30591 | 23264 ft | 322 kts | 236° |
| 2026-04-26 23:01 | 49.42702 | -122.33398 | 22985 ft | 319 kts | 236° |
| 2026-04-26 23:01 | 49.41418 | -122.36186 | 22690 ft | 318 kts | 236° |
| 2026-04-26 23:01 | 49.40153 | -122.38929 | 22370 ft | 319 kts | 236° |
| 2026-04-26 23:02 | 49.38868 | -122.41712 | 22090 ft | 322 kts | 236° |
| 2026-04-26 23:02 | 49.37549 | -122.44570 | 21784 ft | 331 kts | 236° |
| 2026-04-26 23:02 | 49.36208 | -122.47469 | 21431 ft | 331 kts | 236° |
| 2026-04-26 23:02 | 49.34884 | -122.50330 | 21123 ft | 327 kts | 236° |
| 2026-04-26 23:03 | 49.33567 | -122.53172 | 20833 ft | 324 kts | 236° |
| 2026-04-26 23:03 | 49.32280 | -122.55945 | 20504 ft | 323 kts | 236° |
| 2026-04-26 23:03 | 49.30981 | -122.58741 | 20178 ft | 321 kts | 236° |
| 2026-04-26 23:03 | 49.29691 | -122.61515 | 19864 ft | 318 kts | 236° |
| 2026-04-26 23:04 | 49.28407 | -122.64270 | 19542 ft | 316 kts | 235° |
| 2026-04-26 23:04 | 49.27176 | -122.67037 | 19323 ft | 310 kts | 238° |
| 2026-04-26 23:04 | 49.26041 | -122.69817 | 19037 ft | 307 kts | 239° |
| 2026-04-26 23:04 | 49.24932 | -122.72598 | 18733 ft | 305 kts | 239° |
| 2026-04-26 23:05 | 49.23833 | -122.75354 | 18421 ft | 303 kts | 239° |
| 2026-04-26 23:05 | 49.22733 | -122.78100 | 18110 ft | 301 kts | 239° |
| 2026-04-26 23:05 | 49.21639 | -122.80819 | 17802 ft | 300 kts | 239° |
| 2026-04-26 23:05 | 49.20541 | -122.83535 | 17472 ft | 299 kts | 239° |
| 2026-04-26 23:06 | 49.19441 | -122.86251 | 17056 ft | 301 kts | 239° |
| 2026-04-26 23:06 | 49.18351 | -122.88935 | 16742 ft | 300 kts | 239° |
| 2026-04-26 23:06 | 49.17250 | -122.91640 | 16415 ft | 299 kts | 239° |
| 2026-04-26 23:06 | 49.16152 | -122.94335 | 16110 ft | 297 kts | 239° |
| 2026-04-26 23:07 | 49.15060 | -122.97011 | 15799 ft | 295 kts | 239° |
| 2026-04-26 23:07 | 49.13978 | -122.99662 | 15504 ft | 293 kts | 239° |
| 2026-04-26 23:07 | 49.12898 | -123.02305 | 15208 ft | 291 kts | 239° |
| 2026-04-26 23:07 | 49.11829 | -123.04919 | 14920 ft | 289 kts | 239° |
| 2026-04-26 23:08 | 49.10766 | -123.07515 | 14631 ft | 288 kts | 239° |
| 2026-04-26 23:08 | 49.09708 | -123.10095 | 14339 ft | 286 kts | 239° |
| 2026-04-26 23:08 | 49.08655 | -123.12658 | 14048 ft | 284 kts | 239° |
| 2026-04-26 23:08 | 49.07402 | -123.14962 | 13750 ft | 285 kts | 218° |
| 2026-04-26 23:09 | 49.05681 | -123.16465 | 13541 ft | 287 kts | 207° |
| 2026-04-26 23:09 | 49.03878 | -123.17717 | 13292 ft | 289 kts | 205° |
| 2026-04-26 23:09 | 49.02034 | -123.18953 | 13048 ft | 290 kts | 205° |
| 2026-04-26 23:09 | 49.00177 | -123.20203 | 12800 ft | 292 kts | 206° |
| 2026-04-26 23:10 | 48.98314 | -123.21469 | 12554 ft | 293 kts | 206° |
| 2026-04-26 23:10 | 48.96445 | -123.22749 | 12309 ft | 294 kts | 206° |
| 2026-04-26 23:10 | 48.94623 | -123.24002 | 12091 ft | 289 kts | 206° |
| 2026-04-26 23:10 | 48.92795 | -123.25265 | 11783 ft | 287 kts | 206° |
| 2026-04-26 23:11 | 48.90979 | -123.26519 | 11481 ft | 286 kts | 206° |
| 2026-04-26 23:11 | 48.89172 | -123.27766 | 11164 ft | 284 kts | 206° |
| 2026-04-26 23:11 | 48.87375 | -123.29006 | 10865 ft | 283 kts | 207° |
| 2026-04-26 23:11 | 48.85780 | -123.30751 | 10291 ft | 287 kts | 234° |
| 2026-04-26 23:12 | 48.84595 | -123.33155 | 9974 ft | 285 kts | 225° |
| 2026-04-26 23:12 | 48.83038 | -123.35009 | 9769 ft | 280 kts | 219° |
| 2026-04-26 23:12 | 48.81542 | -123.36821 | 9498 ft | 277 kts | 221° |
| 2026-04-26 23:12 | 48.80112 | -123.38661 | 9388 ft | 268 kts | 222° |
| 2026-04-26 23:13 | 48.78720 | -123.40484 | 9206 ft | 262 kts | 223° |
| 2026-04-26 23:13 | 48.77340 | -123.42305 | 8772 ft | 265 kts | 223° |
| 2026-04-26 23:13 | 48.75998 | -123.44221 | 8266 ft | 265 kts | 234° |
| 2026-04-26 23:13 | 48.75295 | -123.46744 | 7748 ft | 261 kts | 263° |
| 2026-04-26 23:14 | 48.75370 | -123.49472 | 7199 ft | 262 kts | 283° |
| 2026-04-26 23:14 | 48.75877 | -123.52150 | 6607 ft | 266 kts | 286° |
| 2026-04-26 23:14 | 48.76412 | -123.54854 | 6058 ft | 266 kts | 286° |
| 2026-04-26 23:14 | 48.76924 | -123.57489 | 5600 ft | 255 kts | 285° |
| 2026-04-26 23:15 | 48.77409 | -123.60026 | 5133 ft | 246 kts | 285° |
| 2026-04-26 23:15 | 48.77880 | -123.62509 | 4919 ft | 245 kts | 285° |
| 2026-04-26 23:15 | 48.78345 | -123.64972 | 4868 ft | 245 kts | 285° |
| 2026-04-26 23:15 | 48.78811 | -123.67446 | 4851 ft | 242 kts | 285° |
| 2026-04-26 23:16 | 48.79273 | -123.69911 | 4850 ft | 243 kts | 285° |
| 2026-04-26 23:16 | 48.79737 | -123.72385 | 4841 ft | 244 kts | 285° |
| 2026-04-26 23:16 | 48.80200 | -123.74861 | 4840 ft | 244 kts | 285° |
| 2026-04-26 23:16 | 48.80655 | -123.77345 | 4843 ft | 244 kts | 282° |
| 2026-04-26 23:17 | 48.80550 | -123.79816 | 4839 ft | 237 kts | 246° |
| 2026-04-26 23:17 | 48.79482 | -123.81600 | 4837 ft | 230 kts | 208° |
| 2026-04-26 23:17 | 48.77964 | -123.82309 | 4768 ft | 226 kts | 196° |
| 2026-04-26 23:17 | 48.76437 | -123.82700 | 4492 ft | 224 kts | 179° |
| 2026-04-26 23:18 | 48.75017 | -123.81789 | 4184 ft | 225 kts | 138° |
| 2026-04-26 23:18 | 48.73952 | -123.80115 | 4128 ft | 221 kts | 136° |
| 2026-04-26 23:18 | 48.72882 | -123.78439 | 4054 ft | 222 kts | 136° |
| 2026-04-26 23:18 | 48.71812 | -123.76769 | 4043 ft | 221 kts | 135° |
| 2026-04-26 23:19 | 48.70968 | -123.74838 | 4027 ft | 224 kts | 105° |
| 2026-04-26 23:19 | 48.70699 | -123.72521 | 3952 ft | 220 kts | 103° |
| 2026-04-26 23:19 | 48.70278 | -123.70339 | 3676 ft | 210 kts | 108° |
| 2026-04-26 23:19 | 48.69860 | -123.68312 | 3415 ft | 192 kts | 108° |
| 2026-04-26 23:20 | 48.69495 | -123.66462 | 3144 ft | 179 kts | 108° |
| 2026-04-26 23:20 | 48.69155 | -123.64707 | 2911 ft | 171 kts | 107° |
| 2026-04-26 23:20 | 48.68829 | -123.63005 | 2676 ft | 164 kts | 107° |
| 2026-04-26 23:20 | 48.68518 | -123.61390 | 2489 ft | 159 kts | 107° |
| 2026-04-26 23:21 | 48.68208 | -123.59774 | 2260 ft | 159 kts | 107° |
| 2026-04-26 23:21 | 48.67902 | -123.58178 | 2032 ft | 156 kts | 107° |
| 2026-04-26 23:21 | 48.67605 | -123.56629 | 1802 ft | 151 kts | 107° |
| 2026-04-26 23:21 | 48.67314 | -123.55112 | 1617 ft | 153 kts | 107° |
| 2026-04-26 23:22 | 48.67019 | -123.53567 | 1407 ft | 152 kts | 107° |
| 2026-04-26 23:22 | 48.66724 | -123.52029 | 1196 ft | 152 kts | 107° |
| 2026-04-26 23:22 | 48.66430 | -123.50490 | 994 ft | 152 kts | 107° |
| 2026-04-26 23:22 | 48.66137 | -123.48957 | 780 ft | 151 kts | 107° |
| 2026-04-26 23:23 | 48.65848 | -123.47437 | 576 ft | 150 kts | 107° |
| 2026-04-26 23:23 | 48.65560 | -123.45928 | 370 ft | 148 kts | 107° |
| 2026-04-26 23:23 | 48.65276 | -123.44435 | 175 ft | 148 kts | 107° |
| 2026-04-26 23:23 | 48.65005 | -123.43005 | 51 ft | 130 kts | 107° |
| 2026-04-26 23:24 | 48.64818 | -123.42006 | 54 ft | 65 kts | 106° |
| 2026-04-26 23:24 | 48.64724 | -123.41542 | 53 ft | 41 kts | 105° |
| 2026-04-26 23:24 | 48.64677 | -123.41307 | 52 ft | 17 kts | 117° |
| 2026-04-26 23:24 | 48.64590 | -123.41244 | 51 ft | 7 kts | 202° |
| 2026-04-26 23:25 | 48.64565 | -123.41307 | 56 ft | 4 kts | 274° |
| 2026-04-26 23:25 | 48.64566 | -123.41309 | 56 ft | 0 kts | 276° |
| 2026-04-26 23:26 | 48.64566 | -123.41313 | 56 ft | 1 kts | 279° |
| 2026-04-26 23:26 | 48.64566 | -123.41314 | 56 ft | 0 kts | 279° |
| 2026-04-26 23:27 | 48.64569 | -123.41334 | 55 ft | 7 kts | 282° |
| 2026-04-26 23:27 | 48.64585 | -123.41422 | 49 ft | 9 kts | 287° |
| 2026-04-26 23:27 | 48.64602 | -123.41509 | 52 ft | 9 kts | 287° |
| 2026-04-26 23:27 | 48.64619 | -123.41593 | 54 ft | 8 kts | 286° |
| 2026-04-26 23:28 | 48.64648 | -123.41747 | 54 ft | 23 kts | 283° |
| 2026-04-26 23:28 | 48.64690 | -123.41978 | 53 ft | 22 kts | 286° |
| 2026-04-26 23:28 | 48.64697 | -123.42171 | 53 ft | 14 kts | 227° |
| 2026-04-26 23:28 | 48.64592 | -123.42265 | 50 ft | 20 kts | 195° |
| 2026-04-26 23:29 | 48.64461 | -123.42322 | 55 ft | 19 kts | 195° |
| 2026-04-26 23:29 | 48.64334 | -123.42377 | 54 ft | 19 kts | 195° |
| 2026-04-26 23:29 | 48.64210 | -123.42410 | 54 ft | 18 kts | 191° |
| 2026-04-26 23:29 | 48.64126 | -123.42527 | 57 ft | 18 kts | 279° |
| 2026-04-26 23:30 | 48.64144 | -123.42709 | 53 ft | 17 kts | 279° |
| 2026-04-26 23:30 | 48.64199 | -123.42850 | 51 ft | 15 kts | 317° |
| 2026-04-26 23:30 | 48.64245 | -123.42967 | 52 ft | 13 kts | 279° |
| 2026-04-26 23:30 | 48.64245 | -123.43090 | 53 ft | 10 kts | 230° |
| 2026-04-26 23:31 | 48.64192 | -123.43154 | 50 ft | 6 kts | 203° |
| 2026-04-26 23:31 | 48.64160 | -123.43168 | 51 ft | 10 kts | 193° |
| 2026-04-26 23:31 | 48.64134 | -123.43175 | 52 ft | 0 kts | 188° |